North Mankato, Minnesota
Current Conditions -  °F | °C
As of 11:55 PM on Wednesday 17 Dec 2014 (Local Time) from KMKT Reporting Station
Overcast Overcast  
Wind Chill:   Ceiling: 1900
Heat Index: 16°   Visibility: 10mi
Dew Point:   Wind: 5mph
Humidity: 73%   Direction: 120°ESE
Pressure: 30.32"   Gusts: NA
Location:  44.17°N, 94.01°W
Report Text: KMKT 180555Z AUTO 12004KT 10SM OVC019 M09/M13 A3032 RMK AO1 11080 21090 410701130 52007
Loading
Personal Weather Stations






























Interactive Weather Map New forecast layout! Learn more

10-Day Weather Forecast

Advertisements
Track Severe Weather on mobile